createdAt,value
2019-03-16T00:00:41.312Z,6
2019-03-16T00:05:43.645Z,6
2019-03-16T00:10:46.184Z,5.9
2019-03-16T00:15:48.562Z,5.9
2019-03-16T00:20:50.998Z,5.9
2019-03-16T00:25:53.464Z,5.8
2019-03-16T00:30:56.040Z,5.8
2019-03-16T00:35:58.427Z,5.8
2019-03-16T00:41:00.846Z,5.7
2019-03-16T00:46:03.291Z,5.7
2019-03-16T00:51:06.139Z,5.6
2019-03-16T00:56:08.227Z,5.6
2019-03-16T01:01:10.715Z,5.6
2019-03-16T01:06:13.114Z,5.6
2019-03-16T01:11:15.601Z,5.6
2019-03-16T01:16:18.056Z,5.6
2019-03-16T01:21:20.480Z,5.6
2019-03-16T01:26:22.954Z,5.6
2019-03-16T01:31:25.529Z,5.5
2019-03-16T01:36:27.891Z,5.5
2019-03-16T01:41:30.393Z,5.5
2019-03-16T01:46:32.845Z,5.5
2019-03-16T01:51:35.505Z,5.5
2019-03-16T01:56:37.702Z,5.5
2019-03-16T02:01:40.220Z,5.5
2019-03-16T02:06:42.630Z,5.6
2019-03-16T02:11:45.062Z,5.6
2019-03-16T02:16:47.579Z,5.6
2019-03-16T02:21:50.384Z,5.6
2019-03-16T02:26:52.436Z,5.6
2019-03-16T02:31:54.971Z,5.6
2019-03-16T02:36:57.349Z,5.6
2019-03-16T02:41:59.848Z,5.6
2019-03-16T02:47:02.312Z,5.6
2019-03-16T02:52:04.719Z,5.6
2019-03-16T02:57:07.503Z,5.7
2019-03-16T03:02:09.737Z,5.6
2019-03-16T03:07:12.123Z,5.6
2019-03-16T03:12:14.531Z,5.7
2019-03-16T03:17:17.059Z,5.6
2019-03-16T03:22:19.450Z,5.7
2019-03-16T03:27:21.941Z,5.7
2019-03-16T03:32:24.578Z,5.7
2019-03-16T03:37:26.837Z,5.7
2019-03-16T03:42:29.286Z,5.7
2019-03-16T03:47:31.795Z,5.6
2019-03-16T03:52:34.273Z,5.6
2019-03-16T03:57:36.764Z,5.6
2019-03-16T04:02:39.193Z,5.6
2019-03-16T04:07:41.587Z,5.6
2019-03-16T04:12:44.057Z,5.7
2019-03-16T04:17:46.544Z,5.7
2019-03-16T04:22:49.257Z,5.7
2019-03-16T04:27:51.410Z,5.7
2019-03-16T04:32:53.858Z,5.6
2019-03-16T04:42:59.143Z,5.6
2019-03-16T04:48:01.335Z,5.6
2019-03-16T04:53:03.689Z,5.6
2019-03-16T04:58:06.226Z,5.7
2019-03-16T05:03:08.784Z,5.7
2019-03-16T05:08:11.076Z,5.7
2019-03-16T05:13:13.518Z,5.7
2019-03-16T05:18:15.978Z,5.7
2019-03-16T05:23:18.506Z,5.6
2019-03-16T05:28:20.964Z,5.6
2019-03-16T05:33:23.343Z,5.6
2019-03-16T05:38:25.807Z,5.6
2019-03-16T05:43:28.307Z,5.7
2019-03-16T05:48:30.718Z,5.6
2019-03-16T05:53:33.468Z,5.7
2019-03-16T05:58:35.729Z,5.7
2019-03-16T06:03:38.082Z,5.6
2019-03-16T06:08:40.561Z,5.6
2019-03-16T06:13:43.173Z,5.6
2019-03-16T06:18:45.501Z,5.6
2019-03-16T06:23:48.238Z,5.5
2019-03-16T06:28:50.384Z,5.4
2019-03-16T06:33:52.978Z,5.3
2019-03-16T06:38:55.305Z,5.2
2019-03-16T06:43:57.898Z,5.2
2019-03-16T06:49:00.248Z,5.2
2019-03-16T06:54:02.776Z,5.2
2019-03-16T06:59:05.139Z,5.2
2019-03-16T07:04:07.653Z,5
2019-03-16T07:09:10.027Z,4.9
2019-03-16T07:14:12.488Z,4.9
2019-03-16T07:19:14.967Z,4.8
2019-03-16T07:24:17.725Z,4.7
2019-03-16T07:29:19.876Z,4.6
2019-03-16T07:34:22.392Z,4.6
2019-03-16T07:39:24.775Z,4.6
2019-03-16T07:44:27.363Z,4.7
2019-03-16T07:49:29.711Z,4.8
2019-03-16T07:54:32.195Z,4.9
2019-03-16T07:59:37.048Z,5
2019-03-16T08:04:37.141Z,5
2019-03-16T08:09:39.627Z,5
2019-03-16T08:14:41.969Z,5
2019-03-16T08:19:44.465Z,4.8
2019-03-16T08:24:47.179Z,4.8
2019-03-16T08:29:49.378Z,4.8
2019-03-16T08:34:51.887Z,4.8
2019-03-16T08:39:54.251Z,4.8
2019-03-16T08:44:56.850Z,4.8
2019-03-16T08:49:59.216Z,4.9
2019-03-16T08:55:06.631Z,4.9
2019-03-16T09:00:04.119Z,5.1
2019-03-16T09:05:06.656Z,5.4
2019-03-16T09:10:09.011Z,5.5
2019-03-16T09:15:11.483Z,5.7
2019-03-16T09:20:13.953Z,5.6
2019-03-16T09:25:16.380Z,5.7
2019-03-16T09:30:18.856Z,5.7
2019-03-16T09:35:21.361Z,5.7
2019-03-16T09:40:23.770Z,5.7
2019-03-16T09:45:26.198Z,5.8
2019-03-16T09:50:28.670Z,5.9
2019-03-16T09:55:31.164Z,5.9
2019-03-16T10:00:33.698Z,5.8
2019-03-16T10:05:36.143Z,5.8
2019-03-16T10:10:38.489Z,5.7
2019-03-16T10:15:40.932Z,5.9
2019-03-16T10:20:43.392Z,6.1
2019-03-16T10:25:45.865Z,6.3
2019-03-16T10:30:48.416Z,6.2
2019-03-16T10:35:50.849Z,6.1
2019-03-16T10:40:53.265Z,6.2
2019-03-16T10:45:55.768Z,6.3
2019-03-16T10:50:58.207Z,6.2
2019-03-16T10:56:00.631Z,6.1
2019-03-16T11:01:03.137Z,6
2019-03-16T11:06:05.626Z,6
2019-03-16T11:11:08.033Z,6.2
2019-03-16T11:16:10.461Z,6.5
2019-03-16T11:21:12.917Z,6.7
2019-03-16T11:26:15.436Z,6.9
2019-03-16T11:31:17.828Z,7.1
2019-03-16T11:36:20.489Z,7.2
2019-03-16T11:41:22.847Z,7.1
2019-03-16T11:46:25.265Z,7.1
2019-03-16T11:51:27.729Z,7.1
2019-03-16T11:56:30.551Z,7.5
2019-03-16T12:01:32.646Z,8.2
2019-03-16T12:06:35.116Z,9.1
2019-03-16T12:11:37.550Z,9.5
2019-03-16T12:16:39.951Z,9.6
2019-03-16T12:21:42.743Z,9.4
2019-03-16T12:26:45.191Z,9.4
2019-03-16T12:31:47.373Z,9.4
2019-03-16T12:36:49.944Z,9.4
2019-03-16T12:41:52.245Z,9.6
2019-03-16T12:46:54.685Z,10
2019-03-16T12:51:57.154Z,10.3
2019-03-16T13:02:02.086Z,10.7
2019-03-16T13:07:04.595Z,11.2
2019-03-16T13:12:06.977Z,11.5
2019-03-16T13:17:09.488Z,11.7
2019-03-16T13:22:11.926Z,11.5
2019-03-16T13:27:14.390Z,11.1
2019-03-16T13:32:17.092Z,11
2019-03-16T13:37:19.358Z,10.7
2019-03-16T13:42:21.749Z,10.6
2019-03-16T13:47:24.187Z,10.8
2019-03-16T13:52:26.659Z,11
2019-03-16T13:57:29.126Z,11.2
2019-03-16T14:02:31.846Z,11.1
2019-03-16T14:07:34.091Z,11
2019-03-16T14:12:36.501Z,10.9
2019-03-16T14:17:38.923Z,10.7
2019-03-16T14:22:41.406Z,10.5
2019-03-16T14:27:43.889Z,10.4
2019-03-16T14:32:46.648Z,10.2
2019-03-16T14:37:48.859Z,10.1
2019-03-16T14:42:51.378Z,10.1
2019-03-16T14:47:53.671Z,10.4
2019-03-16T14:52:56.119Z,10.6
2019-03-16T14:57:58.733Z,10.7
2019-03-16T15:03:01.071Z,10.6
2019-03-16T15:08:03.600Z,10.4
2019-03-16T15:13:05.961Z,10.3
2019-03-16T15:18:08.413Z,10.1
2019-03-16T15:23:10.888Z,10
2019-03-16T15:28:13.332Z,10
2019-03-16T15:33:15.804Z,10.1
2019-03-16T15:38:18.335Z,10.2
2019-03-16T15:43:20.761Z,10.1
2019-03-16T15:48:23.161Z,10
2019-03-16T15:53:25.678Z,10
2019-03-16T15:58:28.071Z,9.9
2019-03-16T16:03:30.542Z,9.9
2019-03-16T16:08:33.110Z,9.7
2019-03-16T16:13:35.450Z,9.6
2019-03-16T16:18:37.910Z,9.5
2019-03-16T16:23:40.387Z,9.3
2019-03-16T16:28:42.854Z,9.3
2019-03-16T16:33:45.295Z,9.3
2019-03-16T16:38:48.120Z,9.3
2019-03-16T16:43:50.211Z,9.2
2019-03-16T16:48:52.641Z,9.2
2019-03-16T16:53:55.110Z,9
2019-03-16T16:58:57.615Z,9
2019-03-16T17:04:00.489Z,9
2019-03-16T17:09:02.628Z,9
2019-03-16T17:14:04.944Z,9
2019-03-16T17:19:07.388Z,9
2019-03-16T17:24:09.860Z,9
2019-03-16T17:29:12.331Z,9
2019-03-16T17:34:15.135Z,9
2019-03-16T17:39:17.306Z,8.9
2019-03-16T17:44:19.713Z,8.9
2019-03-16T17:49:22.171Z,8.9
2019-03-16T17:54:24.595Z,8.9
2019-03-16T17:59:27.067Z,8.9
2019-03-16T18:04:29.525Z,8.9
2019-03-16T18:09:32.051Z,8.9
2019-03-16T18:14:34.430Z,8.9
2019-03-16T18:19:36.887Z,8.9
2019-03-16T18:24:39.336Z,8.9
2019-03-16T18:29:41.807Z,8.9
2019-03-16T18:34:44.332Z,8.9
2019-03-16T18:39:46.855Z,8.9
2019-03-16T18:44:49.233Z,8.9
2019-03-16T18:49:51.627Z,8.9
2019-03-16T18:54:54.161Z,8.9
2019-03-16T18:59:56.634Z,8.9
2019-03-16T19:04:59.006Z,8.9
2019-03-16T19:10:01.623Z,8.8
2019-03-16T19:15:03.913Z,8.9
2019-03-16T19:20:06.438Z,8.9
2019-03-16T19:25:08.836Z,8.9
2019-03-16T19:30:11.385Z,8.8
2019-03-16T19:35:14.107Z,8.8
2019-03-16T19:40:16.518Z,8.7
2019-03-16T19:45:18.680Z,8.7
2019-03-16T19:50:21.139Z,8.7
2019-03-16T19:55:23.633Z,8.6
2019-03-16T20:00:26.047Z,8.6
2019-03-16T20:05:28.834Z,8.5
2019-03-16T20:10:31.140Z,8.6
2019-03-16T20:15:33.403Z,8.5
2019-03-16T20:20:35.846Z,8.5
2019-03-16T20:25:38.464Z,8.5
2019-03-16T20:30:40.763Z,8.5
2019-03-16T20:35:43.240Z,8.5
2019-03-16T20:40:45.705Z,8.5
2019-03-16T20:45:48.179Z,8.5
2019-03-16T20:50:50.676Z,8.5
2019-03-16T20:55:53.053Z,8.5
2019-03-16T21:00:58.039Z,8.4
2019-03-16T21:05:58.019Z,8.5
2019-03-16T21:11:00.511Z,8.4
2019-03-16T21:16:02.877Z,8.4
2019-03-16T21:21:05.337Z,8.3
2019-03-16T21:26:07.802Z,8.2
2019-03-16T21:31:10.263Z,8.2
2019-03-16T21:36:12.710Z,8.2
2019-03-16T21:41:15.240Z,8.1
2019-03-16T21:46:17.631Z,8
2019-03-16T21:51:20.080Z,7.9
2019-03-16T21:56:22.553Z,7.9
2019-03-16T22:01:24.993Z,7.7
2019-03-16T22:06:27.525Z,7.5
2019-03-16T22:11:30.206Z,7.4
2019-03-16T22:16:32.454Z,7.3
2019-03-16T22:21:34.839Z,7.3
2019-03-16T22:26:37.323Z,7.2
2019-03-16T22:31:39.743Z,7.1
2019-03-16T22:36:42.507Z,7.1
2019-03-16T22:41:44.781Z,7.1
2019-03-16T22:46:47.130Z,7
2019-03-16T22:51:49.560Z,7.1
2019-03-16T22:56:52.034Z,7
2019-03-16T23:01:54.481Z,7
2019-03-16T23:06:57.360Z,7
2019-03-16T23:11:59.534Z,7
2019-03-16T23:17:01.868Z,6.9
2019-03-16T23:22:04.464Z,6.9
2019-03-16T23:27:06.807Z,6.8
2019-03-16T23:32:09.336Z,6.8
2019-03-16T23:37:11.985Z,6.6
2019-03-16T23:42:14.152Z,6.6
2019-03-16T23:47:16.624Z,6.6
2019-03-16T23:52:19.150Z,6.7
2019-03-16T23:57:21.545Z,6.7
